createdAt,value
2023-02-17T00:02:06.070Z,43.80
2023-02-17T00:04:34.637Z,44.60
2023-02-17T00:07:02.728Z,42.10
2023-02-17T00:09:30.749Z,42.60
2023-02-17T00:11:58.743Z,42.20
2023-02-17T00:14:26.784Z,42.30
2023-02-17T00:16:54.771Z,42.00
2023-02-17T00:19:26.114Z,43.00
2023-02-17T00:21:56.907Z,45.70
2023-02-17T00:24:27.845Z,38.90
2023-02-17T00:26:56.021Z,45.60
2023-02-17T00:29:24.222Z,41.80
2023-02-17T00:31:53.901Z,41.40
2023-02-17T00:34:24.435Z,41.10
2023-02-17T00:36:53.470Z,42.40
2023-02-17T00:39:21.670Z,43.10
2023-02-17T00:41:50.365Z,41.90
2023-02-17T00:44:24.022Z,45.30
2023-02-17T00:46:53.470Z,40.70
2023-02-17T00:49:26.661Z,40.00
2023-02-17T00:51:54.816Z,38.20
2023-02-17T00:54:22.953Z,40.20
2023-02-17T00:56:50.997Z,38.50
2023-02-17T00:59:19.124Z,39.30
2023-02-17T01:01:47.482Z,37.20
2023-02-17T01:04:15.631Z,41.20
2023-02-17T01:06:43.697Z,41.50
2023-02-17T01:09:14.534Z,39.30
2023-02-17T01:11:43.802Z,38.10
2023-02-17T01:14:13.594Z,40.90
2023-02-17T01:16:46.304Z,40.00
2023-02-17T01:19:17.713Z,39.00
2023-02-17T01:21:49.034Z,38.70
2023-02-17T01:24:17.485Z,39.20
2023-02-17T01:26:45.701Z,39.80
2023-02-17T01:29:13.823Z,42.00
2023-02-17T01:31:42.031Z,41.30
2023-02-17T01:34:13.238Z,38.20
2023-02-17T01:36:41.376Z,39.30
2023-02-17T01:39:17.032Z,40.10
2023-02-17T01:41:48.287Z,36.90
2023-02-17T01:44:17.917Z,37.40
2023-02-17T01:46:48.956Z,42.00
2023-02-17T01:49:24.628Z,38.30
2023-02-17T01:52:08.179Z,36.30
2023-02-17T01:54:45.873Z,36.50
2023-02-17T01:57:18.444Z,37.70
2023-02-17T01:59:48.226Z,34.90
2023-02-17T02:02:16.877Z,34.70
2023-02-17T02:04:47.011Z,36.60
2023-02-17T02:07:20.274Z,31.70
2023-02-17T02:09:54.396Z,36.10
2023-02-17T02:12:24.863Z,35.60
2023-02-17T02:14:57.922Z,36.60
2023-02-17T02:17:44.249Z,33.60
2023-02-17T02:20:33.558Z,35.30
2023-02-17T02:23:32.842Z,34.00
2023-02-17T02:26:18.956Z,32.60
2023-02-17T02:28:49.745Z,35.40
2023-02-17T02:31:59.214Z,33.30
2023-02-17T02:34:43.634Z,33.20
2023-02-17T02:37:11.668Z,31.80
2023-02-17T02:39:44.788Z,34.00
2023-02-17T02:42:19.065Z,32.50
2023-02-17T02:44:47.923Z,33.30
2023-02-17T02:47:40.254Z,33.10
2023-02-17T02:50:11.360Z,31.20
2023-02-17T02:52:59.247Z,31.40
2023-02-17T02:55:39.291Z,31.20
2023-02-17T02:58:18.671Z,30.20
2023-02-17T03:01:03.101Z,28.20
2023-02-17T03:04:00.443Z,30.10
2023-02-17T03:06:37.605Z,28.70
2023-02-17T03:09:11.747Z,28.60
2023-02-17T03:11:41.782Z,31.40
2023-02-17T03:14:13.517Z,31.40
2023-02-17T03:16:43.513Z,30.90
2023-02-17T03:19:13.935Z,28.90
2023-02-17T03:21:56.217Z,27.20
2023-02-17T03:24:24.582Z,31.60
2023-02-17T03:26:52.690Z,29.00
2023-02-17T03:29:20.828Z,28.50
2023-02-17T03:31:48.926Z,30.30
2023-02-17T03:34:17.266Z,29.20
2023-02-17T03:36:45.379Z,27.30
2023-02-17T03:39:13.491Z,27.90
2023-02-17T03:41:41.603Z,29.10
2023-02-17T03:44:09.686Z,31.70
2023-02-17T03:46:41.066Z,27.90
2023-02-17T03:49:09.284Z,27.70
2023-02-17T03:51:37.480Z,26.00
2023-02-17T03:54:06.340Z,27.80
2023-02-17T03:56:34.519Z,26.30
2023-02-17T03:59:04.162Z,26.50
2023-02-17T04:01:32.614Z,27.20
2023-02-17T04:04:00.877Z,27.40
2023-02-17T04:06:29.077Z,27.70
2023-02-17T04:08:57.216Z,26.80
2023-02-17T04:11:25.376Z,27.10
2023-02-17T04:13:53.449Z,28.60
2023-02-17T04:16:21.635Z,27.00
2023-02-17T04:18:49.838Z,28.70
2023-02-17T04:21:18.039Z,33.00
2023-02-17T04:23:46.247Z,32.20
2023-02-17T04:26:14.301Z,28.40
2023-02-17T04:28:43.039Z,30.90
2023-02-17T04:31:11.402Z,29.60
2023-02-17T04:33:39.585Z,30.20
2023-02-17T04:36:08.252Z,31.80
2023-02-17T04:38:36.408Z,34.70
2023-02-17T04:41:06.398Z,32.00
2023-02-17T04:43:34.453Z,32.30
2023-02-17T04:46:03.037Z,30.60
2023-02-17T04:48:31.235Z,28.80
2023-02-17T04:50:59.331Z,30.40
2023-02-17T04:53:27.476Z,32.40
2023-02-17T04:55:55.820Z,29.10
2023-02-17T04:58:24.117Z,26.50
2023-02-17T05:00:52.173Z,31.70
2023-02-17T05:03:20.222Z,28.60
2023-02-17T05:05:49.819Z,30.80
2023-02-17T05:08:18.064Z,30.40
2023-02-17T05:10:46.218Z,28.30
2023-02-17T05:13:14.208Z,28.20
2023-02-17T05:15:44.258Z,25.40
2023-02-17T05:18:13.369Z,28.70
2023-02-17T05:20:42.349Z,29.20
2023-02-17T05:23:10.663Z,29.10
2023-02-17T05:25:41.012Z,28.30
2023-02-17T05:28:09.351Z,30.40
2023-02-17T05:30:37.484Z,29.70
2023-02-17T05:33:05.667Z,26.70
2023-02-17T05:35:35.385Z,26.70
2023-02-17T05:38:03.579Z,29.40
2023-02-17T05:40:31.942Z,30.40
2023-02-17T05:42:59.926Z,27.70
2023-02-17T05:45:28.081Z,28.10
2023-02-17T05:47:56.249Z,31.20
2023-02-17T05:50:24.786Z,30.80
2023-02-17T05:52:52.964Z,32.50
2023-02-17T05:55:22.338Z,28.50
2023-02-17T05:57:50.510Z,25.80
2023-02-17T06:00:18.771Z,28.90
2023-02-17T06:02:47.114Z,29.50
2023-02-17T06:05:15.709Z,28.70
2023-02-17T06:07:43.822Z,29.00
2023-02-17T06:10:12.532Z,28.90
2023-02-17T06:12:40.903Z,31.50
2023-02-17T06:15:09.295Z,28.00
2023-02-17T06:17:37.684Z,31.40
2023-02-17T06:20:07.112Z,36.80
2023-02-17T06:22:35.227Z,33.30
2023-02-17T06:25:03.494Z,34.10
2023-02-17T06:27:31.689Z,32.60
2023-02-17T06:29:59.899Z,32.60
2023-02-17T06:32:28.132Z,30.40
2023-02-17T06:34:56.171Z,31.90
2023-02-17T06:37:24.207Z,31.90
2023-02-17T06:39:52.277Z,32.40
2023-02-17T06:42:20.368Z,36.60
2023-02-17T06:44:48.578Z,66.30
2023-02-17T06:47:16.757Z,56.20
2023-02-17T06:49:45.284Z,50.50
2023-02-17T06:52:13.358Z,55.60
2023-02-17T06:54:41.325Z,52.60
2023-02-17T06:57:09.316Z,54.20
2023-02-17T06:59:37.367Z,46.60
2023-02-17T07:02:06.036Z,51.20
2023-02-17T07:04:34.080Z,49.80
2023-02-17T07:07:02.154Z,44.90
2023-02-17T07:09:30.732Z,51.50
2023-02-17T07:11:59.016Z,43.00
2023-02-17T07:14:28.314Z,43.60
2023-02-17T07:16:56.585Z,40.40
2023-02-17T07:19:24.767Z,40.40
2023-02-17T07:21:53.387Z,43.10
2023-02-17T07:24:21.727Z,40.90
2023-02-17T07:26:49.812Z,43.20
2023-02-17T07:29:17.866Z,38.70
2023-02-17T07:31:46.108Z,41.80
2023-02-17T07:34:14.237Z,39.00
2023-02-17T07:36:42.269Z,36.70
2023-02-17T07:39:10.481Z,34.40
2023-02-17T07:41:38.634Z,34.70
2023-02-17T07:44:10.175Z,37.90
2023-02-17T07:46:39.863Z,35.80
2023-02-17T07:49:08.050Z,34.20
2023-02-17T07:51:36.203Z,32.10
2023-02-17T07:54:04.416Z,36.30
2023-02-17T07:56:33.822Z,33.30
2023-02-17T07:59:01.931Z,33.70
2023-02-17T08:01:30.153Z,34.60
2023-02-17T08:03:58.297Z,31.70
2023-02-17T08:06:26.791Z,34.10
2023-02-17T08:09:13.949Z,36.40
2023-02-17T08:12:01.580Z,31.40
2023-02-17T08:14:31.422Z,27.70
2023-02-17T08:16:59.861Z,30.50
2023-02-17T08:19:39.543Z,34.00
2023-02-17T08:22:10.997Z,31.30
2023-02-17T08:24:39.062Z,28.80
2023-02-17T08:27:07.203Z,27.20
2023-02-17T08:29:35.281Z,30.70
2023-02-17T08:32:04.056Z,29.90
2023-02-17T08:34:34.762Z,26.10
2023-02-17T08:37:04.867Z,33.00
2023-02-17T08:39:34.804Z,29.20
2023-02-17T08:42:04.316Z,28.60
2023-02-17T08:44:35.797Z,28.80
2023-02-17T08:47:05.441Z,28.00
2023-02-17T08:49:33.600Z,29.20
2023-02-17T08:52:02.530Z,29.90
2023-02-17T08:54:30.965Z,25.80
2023-02-17T08:56:59.229Z,29.10
2023-02-17T08:59:27.437Z,30.60
2023-02-17T09:01:55.825Z,25.50
2023-02-17T09:04:24.142Z,30.40
2023-02-17T09:06:56.599Z,29.30
2023-02-17T09:09:29.323Z,28.70
2023-02-17T09:11:59.062Z,28.30
2023-02-17T09:14:27.317Z,27.50
2023-02-17T09:16:56.528Z,28.10
2023-02-17T09:19:25.593Z,25.00
2023-02-17T09:21:54.141Z,28.00
2023-02-17T09:24:22.402Z,29.40
2023-02-17T09:26:50.450Z,27.90
2023-02-17T09:29:18.442Z,26.70
2023-02-17T09:31:46.678Z,32.20
2023-02-17T09:34:14.796Z,24.50
2023-02-17T09:36:43.306Z,27.70
2023-02-17T09:39:13.841Z,25.90
2023-02-17T09:41:45.366Z,30.10
2023-02-17T09:44:42.399Z,28.90
2023-02-17T09:47:24.963Z,28.30
2023-02-17T09:50:18.664Z,28.90
2023-02-17T09:53:02.374Z,31.60
2023-02-17T09:55:36.792Z,28.20
2023-02-17T09:58:20.818Z,31.80
2023-02-17T10:00:56.170Z,32.50
2023-02-17T10:03:36.126Z,32.30
2023-02-17T10:06:23.461Z,29.00
2023-02-17T10:09:01.104Z,32.50
2023-02-17T10:11:46.512Z,33.90
2023-02-17T10:14:33.020Z,33.90
2023-02-17T10:17:11.022Z,30.80
2023-02-17T10:19:56.699Z,34.30
2023-02-17T10:22:27.157Z,33.30
2023-02-17T10:24:55.447Z,32.30
2023-02-17T10:27:32.711Z,32.50
2023-02-17T10:30:19.465Z,33.00
2023-02-17T10:33:20.567Z,33.50
2023-02-17T10:35:56.423Z,34.30
2023-02-17T10:38:51.014Z,31.60
2023-02-17T10:41:32.914Z,29.70
2023-02-17T10:44:05.284Z,34.70
2023-02-17T10:46:34.994Z,33.00
2023-02-17T10:49:05.116Z,28.80
2023-02-17T10:51:34.352Z,29.90
2023-02-17T10:54:07.852Z,30.90
2023-02-17T10:56:41.744Z,33.70
2023-02-17T10:59:39.191Z,32.10
2023-02-17T11:02:20.817Z,32.20
2023-02-17T11:04:52.149Z,29.50
2023-02-17T11:07:34.021Z,30.60
2023-02-17T11:10:19.530Z,33.10
2023-02-17T11:12:49.784Z,29.60
2023-02-17T11:15:22.023Z,29.80
2023-02-17T11:17:50.805Z,30.80
2023-02-17T11:20:22.029Z,31.20
2023-02-17T11:23:07.478Z,30.70
2023-02-17T11:25:37.915Z,35.50
2023-02-17T11:28:12.481Z,30.60
2023-02-17T11:30:50.399Z,31.70
2023-02-17T11:33:30.009Z,30.90
2023-02-17T11:35:58.497Z,30.00
2023-02-17T11:38:29.664Z,29.90
2023-02-17T11:41:04.529Z,29.90
2023-02-17T11:43:33.186Z,32.20
2023-02-17T11:46:25.203Z,33.70
2023-02-17T11:49:27.388Z,34.60
2023-02-17T11:52:19.501Z,31.20
2023-02-17T11:54:53.510Z,33.20
2023-02-17T11:57:55.634Z,32.60
2023-02-17T12:00:42.289Z,34.90
2023-02-17T12:03:19.355Z,34.00
2023-02-17T12:06:09.314Z,34.80
2023-02-17T12:09:07.862Z,32.00
2023-02-17T12:12:15.019Z,29.90
2023-02-17T12:14:55.826Z,31.90
2023-02-17T12:17:44.343Z,31.90
2023-02-17T12:20:38.656Z,36.40
2023-02-17T12:23:15.537Z,34.50
2023-02-17T12:26:05.364Z,30.50
2023-02-17T12:28:55.570Z,38.00
2023-02-17T12:31:35.551Z,38.10
2023-02-17T12:34:22.103Z,32.50
2023-02-17T12:36:51.360Z,36.70
2023-02-17T12:39:54.311Z,35.40
2023-02-17T12:42:32.188Z,37.50
2023-02-17T12:45:06.001Z,43.40
2023-02-17T12:48:03.917Z,32.10
2023-02-17T12:51:07.871Z,30.20
2023-02-17T12:53:57.499Z,29.30
2023-02-17T12:56:25.521Z,29.70
2023-02-17T12:58:56.574Z,40.40
2023-02-17T13:01:29.620Z,30.70
2023-02-17T13:04:00.026Z,31.10
2023-02-17T13:06:32.662Z,29.80
2023-02-17T13:09:33.023Z,33.40
2023-02-17T13:12:31.710Z,30.90
2023-02-17T13:15:03.782Z,29.90
2023-02-17T13:17:40.733Z,28.90
2023-02-17T13:20:12.202Z,35.90
2023-02-17T13:22:42.444Z,30.20
2023-02-17T13:25:13.721Z,31.10
2023-02-17T13:27:41.757Z,29.90
2023-02-17T13:30:22.176Z,30.20
2023-02-17T13:33:26.505Z,30.10
2023-02-17T13:35:54.671Z,31.60
2023-02-17T13:38:31.462Z,33.10
2023-02-17T13:41:01.974Z,28.00
2023-02-17T13:43:31.667Z,30.40
2023-02-17T13:46:03.726Z,30.10
2023-02-17T13:48:34.994Z,31.50
2023-02-17T13:51:09.865Z,29.60
2023-02-17T13:53:40.317Z,33.30
2023-02-17T13:56:12.554Z,35.10
2023-02-17T13:58:42.189Z,27.70
2023-02-17T14:01:16.926Z,32.00
2023-02-17T14:03:55.167Z,27.50
2023-02-17T14:06:36.575Z,28.60
2023-02-17T14:09:25.350Z,27.30
2023-02-17T14:11:55.356Z,28.10
2023-02-17T14:14:28.528Z,29.10
2023-02-17T14:17:01.337Z,27.70
2023-02-17T14:19:40.936Z,30.80
2023-02-17T14:22:24.863Z,28.90
2023-02-17T14:25:06.384Z,27.30
2023-02-17T14:28:04.071Z,27.30
2023-02-17T14:30:39.818Z,28.50
2023-02-17T14:33:28.257Z,30.80
2023-02-17T14:35:59.415Z,32.50
2023-02-17T14:38:37.732Z,26.10
2023-02-17T14:41:07.640Z,26.20
2023-02-17T14:43:36.441Z,27.00
2023-02-17T14:46:05.093Z,27.40
2023-02-17T14:48:33.203Z,29.90
2023-02-17T14:51:01.172Z,29.10
2023-02-17T14:53:36.602Z,29.70
2023-02-17T14:56:36.740Z,27.30
2023-02-17T14:59:05.184Z,28.00
2023-02-17T15:01:33.207Z,26.80
2023-02-17T15:04:02.875Z,26.90
2023-02-17T15:06:41.385Z,28.60
2023-02-17T15:09:13.164Z,28.10
2023-02-17T15:11:45.606Z,33.50
2023-02-17T15:14:16.257Z,28.30
2023-02-17T15:16:45.606Z,29.70
2023-02-17T15:19:18.012Z,26.90
2023-02-17T15:21:56.440Z,27.00
2023-02-17T15:24:30.475Z,28.50
2023-02-17T15:29:28.552Z,23.80
2023-02-17T15:31:59.637Z,25.30
2023-02-17T15:34:33.029Z,25.50
2023-02-17T15:37:02.586Z,25.70
2023-02-17T15:39:30.683Z,27.50
2023-02-17T15:42:04.650Z,27.60
2023-02-17T15:44:43.208Z,27.60
2023-02-17T15:47:16.038Z,26.30
2023-02-17T15:49:44.054Z,28.70
2023-02-17T15:52:13.582Z,25.90
2023-02-17T15:54:42.802Z,27.10
2023-02-17T15:57:24.663Z,27.70
2023-02-17T15:59:55.195Z,25.60
2023-02-17T16:02:25.789Z,29.70
2023-02-17T16:04:53.837Z,26.30
2023-02-17T16:07:21.969Z,25.20
2023-02-17T16:09:50.014Z,28.30
2023-02-17T16:12:26.856Z,27.70
2023-02-17T16:14:56.903Z,27.00
2023-02-17T16:17:26.093Z,26.90
2023-02-17T16:19:54.097Z,30.30
2023-02-17T16:22:22.246Z,30.00
2023-02-17T16:24:50.401Z,28.50
2023-02-17T16:27:18.639Z,27.50
2023-02-17T16:29:46.762Z,29.50
2023-02-17T16:32:14.833Z,30.40
2023-02-17T16:34:43.103Z,30.40
2023-02-17T16:37:17.461Z,30.70
2023-02-17T16:39:46.150Z,27.60
2023-02-17T16:42:15.557Z,29.50
2023-02-17T16:44:44.418Z,27.40
2023-02-17T16:47:20.736Z,28.30
2023-02-17T16:49:50.394Z,28.20
2023-02-17T16:52:25.791Z,27.30
2023-02-17T16:54:54.215Z,27.90
2023-02-17T16:57:22.676Z,27.00
2023-02-17T16:59:50.909Z,27.70
2023-02-17T17:02:21.322Z,26.30
2023-02-17T17:04:49.951Z,27.50
2023-02-17T17:07:18.274Z,27.10
2023-02-17T17:10:06.980Z,28.00
2023-02-17T17:12:35.195Z,27.60
2023-02-17T17:15:04.351Z,29.70
2023-02-17T17:17:39.011Z,25.30
2023-02-17T17:20:07.971Z,30.40
2023-02-17T17:22:36.064Z,28.70
2023-02-17T17:25:04.282Z,30.30
2023-02-17T17:27:32.417Z,31.20
2023-02-17T17:30:00.589Z,30.30
2023-02-17T17:32:28.811Z,34.30
2023-02-17T17:34:56.967Z,29.10
2023-02-17T17:37:25.137Z,30.70
2023-02-17T17:39:53.162Z,31.30
2023-02-17T17:42:21.140Z,28.80
2023-02-17T17:44:49.256Z,29.40
2023-02-17T17:47:29.381Z,28.20
2023-02-17T17:49:58.475Z,30.10
2023-02-17T17:52:26.573Z,31.20
2023-02-17T17:54:54.619Z,30.70
2023-02-17T17:57:22.742Z,32.10
2023-02-17T17:59:50.671Z,34.00
2023-02-17T18:02:21.658Z,30.30
2023-02-17T18:04:49.799Z,30.90
2023-02-17T18:07:26.963Z,30.30
2023-02-17T18:09:55.078Z,32.60
2023-02-17T18:12:24.691Z,32.40
2023-02-17T18:14:54.832Z,33.60
2023-02-17T18:17:23.924Z,31.90
2023-02-17T18:19:54.989Z,29.30
2023-02-17T18:22:23.130Z,29.60
2023-02-17T18:24:51.274Z,33.60
2023-02-17T18:27:19.339Z,34.90
2023-02-17T18:29:47.367Z,33.20
2023-02-17T18:32:15.478Z,33.70
2023-02-17T18:34:43.464Z,29.90
2023-02-17T18:37:11.556Z,36.00
2023-02-17T18:39:39.650Z,33.60
2023-02-17T18:42:07.655Z,38.20
2023-02-17T18:44:35.772Z,36.80
2023-02-17T18:47:03.859Z,33.10
2023-02-17T18:49:31.882Z,33.40
2023-02-17T18:52:00.002Z,35.70
2023-02-17T18:54:28.098Z,36.10
2023-02-17T18:56:56.191Z,39.10
2023-02-17T18:59:24.347Z,40.60
2023-02-17T19:01:52.494Z,38.00
2023-02-17T19:04:20.460Z,42.00
2023-02-17T19:06:48.742Z,37.80
2023-02-17T19:09:16.941Z,40.60
2023-02-17T19:11:44.946Z,39.00
2023-02-17T19:14:13.049Z,39.20
2023-02-17T19:16:41.066Z,37.60
2023-02-17T19:19:09.198Z,35.80
2023-02-17T19:21:37.339Z,39.70
2023-02-17T19:24:05.476Z,38.60
2023-02-17T19:26:34.312Z,38.40
2023-02-17T19:29:02.596Z,38.70
2023-02-17T19:31:31.127Z,39.30
2023-02-17T19:34:01.317Z,41.00
2023-02-17T19:36:29.420Z,39.30
2023-02-17T19:38:57.954Z,38.10
2023-02-17T19:41:26.193Z,37.00
2023-02-17T19:43:54.283Z,40.80
2023-02-17T19:46:24.534Z,37.50
2023-02-17T19:48:52.721Z,37.10
2023-02-17T19:51:21.033Z,39.60
2023-02-17T19:53:49.137Z,40.50
2023-02-17T19:56:20.877Z,42.50
2023-02-17T19:58:49.584Z,43.20
2023-02-17T20:01:21.461Z,41.10
2023-02-17T20:03:50.005Z,42.90
2023-02-17T20:06:21.596Z,47.00
2023-02-17T20:08:58.984Z,50.20
2023-02-17T20:11:28.415Z,46.00
2023-02-17T20:14:00.853Z,47.90
2023-02-17T20:16:29.921Z,43.00
2023-02-17T20:19:01.077Z,44.50
2023-02-17T20:21:31.233Z,44.60
2023-02-17T20:24:00.348Z,45.30
2023-02-17T20:26:32.525Z,47.00
2023-02-17T20:29:01.792Z,42.20
2023-02-17T20:31:30.107Z,45.30
2023-02-17T20:33:58.179Z,43.70
2023-02-17T20:36:26.306Z,46.80
2023-02-17T20:38:54.315Z,45.80
2023-02-17T20:41:23.127Z,44.10
2023-02-17T20:43:52.076Z,43.60
2023-02-17T20:46:25.102Z,41.50
2023-02-17T20:48:54.105Z,44.70
2023-02-17T20:51:22.690Z,43.10
2023-02-17T20:53:51.177Z,45.70
2023-02-17T20:56:22.458Z,43.80
2023-02-17T20:58:51.951Z,43.60
2023-02-17T21:01:20.354Z,44.00
2023-02-17T21:03:48.634Z,44.60
2023-02-17T21:06:23.130Z,43.90
2023-02-17T21:08:53.939Z,45.20
2023-02-17T21:11:22.563Z,41.50
2023-02-17T21:13:50.973Z,42.10
2023-02-17T21:16:22.762Z,41.70
2023-02-17T21:18:50.855Z,44.20
2023-02-17T21:21:19.097Z,38.50
2023-02-17T21:23:48.094Z,41.30
2023-02-17T21:26:17.147Z,43.60
2023-02-17T21:28:46.300Z,39.80
2023-02-17T21:31:15.121Z,40.70
2023-02-17T21:33:43.580Z,45.30
2023-02-17T21:36:14.514Z,44.10
2023-02-17T21:38:42.973Z,41.90
2023-02-17T21:41:17.386Z,39.80
2023-02-17T21:44:04.579Z,38.20
2023-02-17T21:46:33.600Z,39.40
2023-02-17T21:49:01.626Z,38.60
2023-02-17T21:51:30.876Z,38.50
2023-02-17T21:53:59.400Z,41.00
2023-02-17T21:56:27.453Z,42.20
2023-02-17T21:58:56.023Z,37.60
2023-02-17T22:01:26.382Z,44.00
2023-02-17T22:03:55.625Z,39.40
2023-02-17T22:06:37.170Z,45.70
2023-02-17T22:09:07.472Z,41.60
2023-02-17T22:11:39.603Z,42.90
2023-02-17T22:14:12.358Z,43.10
2023-02-17T22:16:40.631Z,42.20
2023-02-17T22:19:16.165Z,42.50
2023-02-17T22:24:13.337Z,44.10
2023-02-17T22:26:42.189Z,42.80
2023-02-17T22:29:10.278Z,46.10
2023-02-17T22:31:38.477Z,42.00
2023-02-17T22:34:09.871Z,41.60
2023-02-17T22:36:38.593Z,42.80
2023-02-17T22:39:08.282Z,41.20
2023-02-17T22:41:38.766Z,42.60
2023-02-17T22:44:07.546Z,43.70
2023-02-17T22:46:35.619Z,43.00
2023-02-17T22:49:03.603Z,47.00
2023-02-17T22:51:38.524Z,47.50
2023-02-17T22:54:07.952Z,45.20
2023-02-17T22:56:36.604Z,47.80
2023-02-17T22:59:05.714Z,52.40
2023-02-17T23:01:35.537Z,55.50
2023-02-17T23:04:04.593Z,54.10
2023-02-17T23:06:35.305Z,50.80
2023-02-17T23:09:05.211Z,54.80
2023-02-17T23:11:50.193Z,53.90
2023-02-17T23:14:20.481Z,56.70
2023-02-17T23:16:49.266Z,57.30
2023-02-17T23:19:19.754Z,57.80
2023-02-17T23:21:50.814Z,57.10
2023-02-17T23:24:20.455Z,57.70
2023-02-17T23:26:49.129Z,60.80
2023-02-17T23:29:18.390Z,56.90
2023-02-17T23:31:47.074Z,58.10
2023-02-17T23:34:16.335Z,60.70
2023-02-17T23:36:46.370Z,64.90
2023-02-17T23:39:15.720Z,57.20
2023-02-17T23:41:44.319Z,55.50
2023-02-17T23:44:14.163Z,60.60
2023-02-17T23:46:43.680Z,57.50
2023-02-17T23:49:16.876Z,58.90
2023-02-17T23:51:46.953Z,55.30
2023-02-17T23:54:15.533Z,58.00
2023-02-17T23:56:43.843Z,56.30
2023-02-17T23:59:12.002Z,66.40
